createdAt,value
2022-07-27T00:00:25.578Z,13.56
2022-07-27T00:01:25.578Z,13.54
2022-07-27T00:02:25.524Z,13.50
2022-07-27T00:03:25.516Z,13.49
2022-07-27T00:04:25.598Z,13.44
2022-07-27T00:05:28.485Z,13.42
2022-07-27T00:06:28.517Z,13.42
2022-07-27T00:07:25.459Z,13.35
2022-07-27T00:08:25.438Z,13.33
2022-07-27T00:09:25.439Z,13.27
2022-07-27T00:10:25.410Z,13.25
2022-07-27T00:11:25.400Z,13.19
2022-07-27T00:12:25.410Z,13.16
2022-07-27T00:13:25.389Z,13.13
2022-07-27T00:14:25.361Z,13.11
2022-07-27T00:15:25.351Z,13.05
2022-07-27T00:16:25.415Z,13.03
2022-07-27T00:17:25.343Z,13.00
2022-07-27T00:18:25.310Z,13.00
2022-07-27T00:19:25.295Z,12.97
2022-07-27T00:20:27.114Z,12.95
2022-07-27T00:21:25.263Z,12.93
2022-07-27T00:22:25.293Z,12.90
2022-07-27T00:23:25.236Z,12.90
2022-07-27T00:24:25.225Z,12.87
2022-07-27T00:25:28.220Z,12.86
2022-07-27T00:26:28.204Z,12.87
2022-07-27T00:27:25.186Z,12.82
2022-07-27T00:28:25.201Z,12.82
2022-07-27T00:29:25.156Z,12.79
2022-07-27T00:30:25.145Z,12.78
2022-07-27T00:31:25.205Z,12.78
2022-07-27T00:32:25.117Z,12.75
2022-07-27T00:33:25.150Z,12.73
2022-07-27T00:34:25.087Z,12.70
2022-07-27T00:35:25.077Z,12.67
2022-07-27T00:36:25.070Z,12.65
2022-07-27T00:37:25.049Z,12.64
2022-07-27T00:38:25.060Z,12.61
2022-07-27T00:39:25.035Z,12.58
2022-07-27T00:40:25.009Z,12.57
2022-07-27T00:41:24.997Z,12.54
2022-07-27T00:42:24.979Z,12.54
2022-07-27T00:43:24.971Z,12.54
2022-07-27T00:44:24.981Z,12.53
2022-07-27T00:45:27.943Z,12.50
2022-07-27T00:46:28.040Z,12.53
2022-07-27T00:47:24.913Z,12.49
2022-07-27T00:48:26.496Z,12.49
2022-07-27T00:49:24.983Z,12.47
2022-07-27T00:50:24.872Z,12.46
2022-07-27T00:51:24.862Z,12.43
2022-07-27T00:52:24.844Z,12.43
2022-07-27T00:53:24.854Z,12.40
2022-07-27T00:54:24.844Z,12.39
2022-07-27T00:55:24.805Z,12.39
2022-07-27T00:56:24.798Z,12.37
2022-07-27T00:57:24.775Z,12.36
2022-07-27T00:58:24.766Z,12.35
2022-07-27T00:59:24.787Z,12.32
2022-07-27T01:00:24.766Z,12.31
2022-07-27T01:01:24.786Z,12.29
2022-07-27T01:02:24.792Z,12.28
2022-07-27T01:03:29.686Z,12.27
2022-07-27T01:04:25.708Z,12.27
2022-07-27T01:05:36.417Z,12.25
2022-07-27T01:06:28.689Z,12.27
2022-07-27T01:07:24.640Z,12.22
2022-07-27T01:08:24.628Z,12.22
2022-07-27T01:09:24.641Z,12.20
2022-07-27T01:10:24.598Z,12.18
2022-07-27T01:11:24.621Z,12.17
2022-07-27T01:12:24.571Z,12.17
2022-07-27T01:13:24.559Z,12.18
2022-07-27T01:14:28.593Z,12.18
2022-07-27T01:15:24.531Z,12.17
2022-07-27T01:16:24.614Z,12.17
2022-07-27T01:17:24.506Z,12.15
2022-07-27T01:18:24.511Z,12.17
2022-07-27T01:19:24.472Z,12.13
2022-07-27T01:20:24.484Z,12.13
2022-07-27T01:21:24.495Z,12.10
2022-07-27T01:22:25.434Z,12.10
2022-07-27T01:23:24.444Z,12.10
2022-07-27T01:24:24.404Z,12.09
2022-07-27T01:25:27.384Z,12.09
2022-07-27T01:26:27.442Z,12.09
2022-07-27T01:27:24.367Z,12.07
2022-07-27T01:28:24.348Z,12.07
2022-07-27T01:29:24.327Z,12.09
2022-07-27T01:30:24.324Z,12.07
2022-07-27T01:31:24.394Z,12.07
2022-07-27T01:32:24.347Z,12.06
2022-07-27T01:33:24.276Z,12.06
2022-07-27T01:34:24.278Z,12.06
2022-07-27T01:35:24.248Z,12.06
2022-07-27T01:36:24.228Z,12.03
2022-07-27T01:37:24.221Z,12.03
2022-07-27T01:38:24.233Z,12.04
2022-07-27T01:39:24.189Z,12.04
2022-07-27T01:40:24.179Z,12.07
2022-07-27T01:41:24.159Z,12.06
2022-07-27T01:42:24.150Z,12.09
2022-07-27T01:43:24.168Z,12.10
2022-07-27T01:44:24.123Z,12.12
2022-07-27T01:45:27.102Z,12.13
2022-07-27T01:46:27.169Z,12.18
2022-07-27T01:47:24.073Z,12.21
2022-07-27T01:48:24.091Z,12.22
2022-07-27T01:49:24.107Z,12.27
2022-07-27T01:50:24.033Z,12.31
2022-07-27T01:51:24.015Z,12.36
2022-07-27T01:52:24.005Z,12.39
2022-07-27T01:53:24.024Z,12.43
2022-07-27T01:54:23.979Z,12.47
2022-07-27T01:55:23.965Z,12.53
2022-07-27T01:56:23.976Z,12.54
2022-07-27T01:57:23.937Z,12.58
2022-07-27T01:58:23.956Z,12.60
2022-07-27T01:59:23.907Z,12.64
2022-07-27T02:00:23.905Z,12.65
2022-07-27T02:01:23.967Z,12.68
2022-07-27T02:02:23.868Z,12.70
2022-07-27T02:03:23.898Z,12.73
2022-07-27T02:04:23.847Z,12.73
2022-07-27T02:05:26.851Z,12.75
2022-07-27T02:06:26.828Z,12.76
2022-07-27T02:07:23.798Z,12.76
2022-07-27T02:08:23.797Z,12.78
2022-07-27T02:09:23.959Z,12.78
2022-07-27T02:10:23.771Z,12.78
2022-07-27T02:11:23.739Z,12.76
2022-07-27T02:12:23.736Z,12.76
2022-07-27T02:13:23.710Z,12.78
2022-07-27T02:14:23.709Z,12.79
2022-07-27T02:15:25.190Z,12.82
2022-07-27T02:16:24.489Z,12.83
2022-07-27T02:17:23.660Z,12.87
2022-07-27T02:18:32.682Z,12.91
2022-07-27T02:19:24.642Z,12.94
2022-07-27T02:20:23.662Z,12.97
2022-07-27T02:21:23.613Z,13.01
2022-07-27T02:22:23.593Z,13.03
2022-07-27T02:23:23.582Z,13.05
2022-07-27T02:24:23.577Z,13.05
2022-07-27T02:25:26.577Z,13.09
2022-07-27T02:26:26.557Z,13.12
2022-07-27T02:27:23.525Z,13.11
2022-07-27T02:28:23.521Z,13.13
2022-07-27T02:29:23.502Z,13.12
2022-07-27T02:30:23.516Z,13.11
2022-07-27T02:31:23.503Z,13.12
2022-07-27T02:32:23.538Z,13.12
2022-07-27T02:33:23.543Z,13.12
2022-07-27T02:34:23.478Z,13.12
2022-07-27T02:35:23.416Z,13.12
2022-07-27T02:36:23.408Z,13.09
2022-07-27T02:37:23.407Z,13.09
2022-07-27T02:38:23.408Z,13.09
2022-07-27T02:39:23.368Z,13.05
2022-07-27T02:40:23.370Z,13.04
2022-07-27T02:41:23.330Z,13.01
2022-07-27T02:42:23.331Z,12.97
2022-07-27T02:43:23.335Z,12.95
2022-07-27T02:44:23.300Z,12.93
2022-07-27T02:45:26.320Z,12.87
2022-07-27T02:46:26.338Z,12.90
2022-07-27T02:47:23.270Z,12.85
2022-07-27T02:48:23.250Z,12.80
2022-07-27T02:49:23.264Z,12.79
2022-07-27T02:50:23.224Z,12.78
2022-07-27T02:51:23.229Z,12.75
2022-07-27T02:52:23.184Z,12.72
2022-07-27T02:53:23.182Z,12.68
2022-07-27T02:54:23.163Z,12.65
2022-07-27T02:55:23.145Z,12.64
2022-07-27T02:56:26.872Z,12.62
2022-07-27T02:57:23.123Z,12.60
2022-07-27T02:58:23.107Z,12.58
2022-07-27T02:59:23.096Z,12.55
2022-07-27T03:00:23.085Z,12.55
2022-07-27T03:01:23.096Z,12.53
2022-07-27T03:02:23.106Z,12.53
2022-07-27T03:03:23.037Z,12.50
2022-07-27T03:04:24.085Z,12.53
2022-07-27T03:05:26.012Z,12.53
2022-07-27T03:06:26.015Z,12.54
2022-07-27T03:07:23.003Z,12.53
2022-07-27T03:08:23.027Z,12.53
2022-07-27T03:09:29.009Z,12.53
2022-07-27T03:10:23.949Z,12.50
2022-07-27T03:11:22.929Z,12.50
2022-07-27T03:12:22.926Z,12.49
2022-07-27T03:13:22.901Z,12.47
2022-07-27T03:14:22.940Z,12.47
2022-07-27T03:15:22.870Z,12.45
2022-07-27T03:16:22.920Z,12.45
2022-07-27T03:17:22.862Z,12.45
2022-07-27T03:18:22.834Z,12.43
2022-07-27T03:19:26.945Z,12.43
2022-07-27T03:20:23.882Z,12.42
2022-07-27T03:21:22.794Z,12.43
2022-07-27T03:22:22.787Z,12.42
2022-07-27T03:23:22.788Z,12.42
2022-07-27T03:24:22.755Z,12.42
2022-07-27T03:25:25.763Z,12.42
2022-07-27T03:26:25.779Z,12.45
2022-07-27T03:27:22.714Z,12.45
2022-07-27T03:28:22.717Z,12.45
2022-07-27T03:29:22.684Z,12.46
2022-07-27T03:30:22.677Z,12.47
2022-07-27T03:31:22.770Z,12.50
2022-07-27T03:32:22.649Z,12.49
2022-07-27T03:33:22.635Z,12.53
2022-07-27T03:34:22.625Z,12.54
2022-07-27T03:35:22.610Z,12.53
2022-07-27T03:36:22.598Z,12.54
2022-07-27T03:37:22.652Z,12.58
2022-07-27T03:38:22.565Z,12.58
2022-07-27T03:39:22.547Z,12.58
2022-07-27T03:40:22.548Z,12.61
2022-07-27T03:41:22.531Z,12.62
2022-07-27T03:42:22.659Z,12.62
2022-07-27T03:43:22.490Z,12.64
2022-07-27T03:44:22.479Z,12.64
2022-07-27T03:45:25.462Z,12.65
2022-07-27T03:46:25.554Z,12.68
2022-07-27T03:47:22.442Z,12.67
2022-07-27T03:48:22.454Z,12.68
2022-07-27T03:49:22.483Z,12.68
2022-07-27T03:50:22.406Z,12.68
2022-07-27T03:51:22.388Z,12.68
2022-07-27T03:52:22.373Z,12.70
2022-07-27T03:53:22.383Z,12.70
2022-07-27T03:54:22.343Z,12.70
2022-07-27T03:55:22.325Z,12.70
2022-07-27T03:56:22.366Z,12.73
2022-07-27T03:57:22.307Z,12.75
2022-07-27T03:58:22.287Z,12.75
2022-07-27T03:59:22.273Z,12.75
2022-07-27T04:00:22.272Z,12.78
2022-07-27T04:01:22.275Z,12.78
2022-07-27T04:02:22.320Z,12.78
2022-07-27T04:03:22.217Z,12.78
2022-07-27T04:04:22.212Z,12.79
2022-07-27T04:05:25.237Z,12.79
2022-07-27T04:06:25.192Z,12.80
2022-07-27T04:07:22.158Z,12.79
2022-07-27T04:08:22.150Z,12.82
2022-07-27T04:09:22.129Z,12.82
2022-07-27T04:10:22.126Z,12.83
2022-07-27T04:11:22.271Z,12.86
2022-07-27T04:12:22.091Z,12.86
2022-07-27T04:13:22.080Z,12.90
2022-07-27T04:14:22.070Z,12.91
2022-07-27T04:15:22.060Z,12.91
2022-07-27T04:16:22.080Z,12.95
2022-07-27T04:17:55.266Z,12.98
2022-07-27T04:18:23.031Z,13.03
2022-07-27T04:19:21.995Z,13.08
2022-07-27T04:20:21.992Z,13.11
2022-07-27T04:21:21.964Z,13.12
2022-07-27T04:22:21.955Z,13.11
2022-07-27T04:23:21.964Z,13.11
2022-07-27T04:24:21.963Z,13.09
2022-07-27T04:25:24.947Z,13.09
2022-07-27T04:26:24.924Z,13.13
2022-07-27T04:27:21.885Z,13.12
2022-07-27T04:28:21.878Z,13.13
2022-07-27T04:29:22.442Z,13.15
2022-07-27T04:30:21.901Z,13.15
2022-07-27T04:31:21.947Z,13.15
2022-07-27T04:32:21.824Z,13.18
2022-07-27T04:33:21.804Z,13.19
2022-07-27T04:34:21.797Z,13.19
2022-07-27T04:35:26.382Z,13.20
2022-07-27T04:36:22.776Z,13.22
2022-07-27T04:37:21.752Z,13.23
2022-07-27T04:38:21.751Z,13.25
2022-07-27T04:39:21.729Z,13.28
2022-07-27T04:40:21.741Z,13.28
2022-07-27T04:41:21.698Z,13.23
2022-07-27T04:42:21.680Z,13.25
2022-07-27T04:43:21.702Z,13.27
2022-07-27T04:44:21.669Z,13.25
2022-07-27T04:45:24.651Z,13.27
2022-07-27T04:46:24.748Z,13.30
2022-07-27T04:47:21.623Z,13.30
2022-07-27T04:48:21.667Z,13.35
2022-07-27T04:49:21.665Z,13.37
2022-07-27T04:50:21.571Z,13.42
2022-07-27T04:51:21.564Z,13.46
2022-07-27T04:52:26.603Z,13.52
2022-07-27T04:53:22.598Z,13.59
2022-07-27T04:54:21.524Z,13.67
2022-07-27T04:55:21.516Z,13.72
2022-07-27T04:56:21.503Z,13.79
2022-07-27T04:57:21.492Z,13.83
2022-07-27T04:58:21.476Z,13.87
2022-07-27T04:59:21.486Z,13.93
2022-07-27T05:00:21.473Z,14.03
2022-07-27T05:01:21.471Z,14.12
2022-07-27T05:02:21.431Z,14.22
2022-07-27T05:03:21.397Z,14.32
2022-07-27T05:04:21.432Z,14.45
2022-07-27T05:05:24.398Z,14.70
2022-07-27T05:06:24.443Z,15.47
2022-07-27T05:07:21.347Z,16.57
2022-07-27T05:08:21.338Z,17.38
2022-07-27T05:09:22.605Z,18.11
2022-07-27T05:10:21.309Z,18.40
2022-07-27T05:11:21.296Z,18.73
2022-07-27T05:12:21.460Z,19.14
2022-07-27T05:13:21.268Z,18.77
2022-07-27T05:14:21.890Z,18.28
2022-07-27T05:15:21.244Z,17.86
2022-07-27T05:16:23.859Z,17.60
2022-07-27T05:17:22.244Z,17.57
2022-07-27T05:18:21.203Z,17.87
2022-07-27T05:19:21.183Z,18.45
2022-07-27T05:20:21.183Z,19.07
2022-07-27T05:21:21.164Z,19.54
2022-07-27T05:22:21.213Z,19.88
2022-07-27T05:23:21.136Z,20.36
2022-07-27T05:24:21.123Z,20.90
2022-07-27T05:25:24.108Z,21.35
2022-07-27T05:26:24.114Z,21.80
2022-07-27T05:27:21.076Z,22.06
2022-07-27T05:28:21.123Z,22.32
2022-07-27T05:29:21.047Z,22.57
2022-07-27T05:30:21.045Z,22.65
2022-07-27T05:31:21.091Z,22.91
2022-07-27T05:32:21.010Z,22.99
2022-07-27T05:33:21.199Z,22.85
2022-07-27T05:34:20.989Z,22.93
2022-07-27T05:35:20.969Z,22.96
2022-07-27T05:36:20.961Z,23.25
2022-07-27T05:37:20.939Z,23.55
2022-07-27T05:38:20.932Z,23.69
2022-07-27T05:39:21.693Z,23.74
2022-07-27T05:40:20.899Z,23.69
2022-07-27T05:41:20.882Z,23.78
2022-07-27T05:42:20.872Z,23.88
2022-07-27T05:43:20.860Z,24.08
2022-07-27T05:44:20.843Z,24.10
2022-07-27T05:45:23.939Z,24.11
2022-07-27T05:46:24.730Z,24.01
2022-07-27T05:47:20.805Z,24.05
2022-07-27T05:48:20.785Z,24.16
2022-07-27T05:49:20.869Z,24.26
2022-07-27T05:50:20.767Z,24.28
2022-07-27T05:51:20.777Z,24.43
2022-07-27T05:52:20.738Z,24.55
2022-07-27T05:53:20.726Z,24.68
2022-07-27T05:54:20.708Z,24.45
2022-07-27T05:55:20.729Z,24.05
2022-07-27T05:56:20.678Z,22.87
2022-07-27T05:57:20.669Z,22.60
2022-07-27T05:58:20.661Z,22.04
2022-07-27T05:59:20.640Z,21.25
2022-07-27T06:00:20.647Z,21.20
2022-07-27T06:01:20.731Z,20.72
2022-07-27T06:02:20.592Z,20.07
2022-07-27T06:03:20.610Z,19.58
2022-07-27T06:04:20.577Z,19.18
2022-07-27T06:05:23.620Z,18.70
2022-07-27T06:06:23.623Z,18.35
2022-07-27T06:07:20.545Z,17.95
2022-07-27T06:08:20.526Z,17.59
2022-07-27T06:09:20.504Z,17.20
2022-07-27T06:10:20.495Z,16.96
2022-07-27T06:11:20.475Z,16.84
2022-07-27T06:12:20.496Z,16.64
2022-07-27T06:13:21.727Z,16.36
2022-07-27T06:14:20.434Z,16.28
2022-07-27T06:15:20.428Z,16.23
2022-07-27T06:16:20.459Z,16.16
2022-07-27T06:17:20.408Z,16.08
2022-07-27T06:18:20.429Z,15.97
2022-07-27T06:19:20.371Z,15.88
2022-07-27T06:20:20.361Z,15.88
2022-07-27T06:21:20.342Z,15.90
2022-07-27T06:22:20.320Z,15.90
2022-07-27T06:23:20.310Z,15.90
2022-07-27T06:24:20.386Z,15.86
2022-07-27T06:25:23.292Z,15.75
2022-07-27T06:26:24.365Z,15.70
2022-07-27T06:27:20.272Z,15.59
2022-07-27T06:28:20.259Z,15.59
2022-07-27T06:29:20.235Z,15.61
2022-07-27T06:30:20.223Z,15.62
2022-07-27T06:31:20.315Z,15.59
2022-07-27T06:32:20.268Z,15.59
2022-07-27T06:33:20.186Z,15.58
2022-07-27T06:34:20.167Z,15.54
2022-07-27T06:35:20.168Z,15.47
2022-07-27T06:36:20.146Z,15.39
2022-07-27T06:37:20.145Z,15.35
2022-07-27T06:38:20.137Z,15.37
2022-07-27T06:39:20.098Z,15.42
2022-07-27T06:40:20.102Z,15.49
2022-07-27T06:41:20.128Z,15.59
2022-07-27T06:42:20.060Z,15.62
2022-07-27T06:43:20.050Z,15.68
2022-07-27T06:44:20.039Z,15.70
2022-07-27T06:45:23.025Z,15.72
2022-07-27T06:46:23.137Z,15.77
2022-07-27T06:47:20.014Z,15.90
2022-07-27T06:48:19.980Z,16.04
2022-07-27T06:49:20.039Z,16.17
2022-07-27T06:50:19.978Z,16.28
2022-07-27T06:51:19.943Z,16.41
2022-07-27T06:52:19.953Z,16.50
2022-07-27T06:53:21.454Z,16.56
2022-07-27T06:54:19.903Z,16.64
2022-07-27T06:55:19.885Z,16.69
2022-07-27T06:56:19.913Z,16.71
2022-07-27T06:57:19.874Z,16.78
2022-07-27T06:58:19.844Z,16.74
2022-07-27T06:59:19.832Z,16.75
2022-07-27T07:00:19.819Z,16.86
2022-07-27T07:01:19.845Z,16.96
2022-07-27T07:02:19.829Z,17.01
2022-07-27T07:03:19.835Z,17.01
2022-07-27T07:04:23.972Z,17.02
2022-07-27T07:05:23.748Z,16.99
2022-07-27T07:06:22.749Z,17.11
2022-07-27T07:07:19.737Z,17.16
2022-07-27T07:08:19.769Z,17.26
2022-07-27T07:09:19.714Z,17.33
2022-07-27T07:10:19.689Z,17.23
2022-07-27T07:11:19.675Z,17.22
2022-07-27T07:12:19.652Z,17.27
2022-07-27T07:13:19.652Z,17.33
2022-07-27T07:14:19.652Z,17.39
2022-07-27T07:15:19.623Z,17.46
2022-07-27T07:16:19.688Z,17.57
2022-07-27T07:17:19.857Z,17.64
2022-07-27T07:18:19.663Z,17.71
2022-07-27T07:19:19.563Z,17.76
2022-07-27T07:20:19.567Z,17.83
2022-07-27T07:21:19.548Z,17.89
2022-07-27T07:22:19.526Z,17.90
2022-07-27T07:23:19.525Z,17.89
2022-07-27T07:24:19.545Z,17.94
2022-07-27T07:25:22.493Z,18.04
2022-07-27T07:26:22.496Z,18.11
2022-07-27T07:27:19.468Z,18.07
2022-07-27T07:28:19.450Z,18.01
2022-07-27T07:29:19.447Z,17.89
2022-07-27T07:30:19.489Z,17.79
2022-07-27T07:31:19.418Z,17.82
2022-07-27T07:32:19.398Z,17.79
2022-07-27T07:33:19.380Z,17.80
2022-07-27T07:34:19.364Z,17.78
2022-07-27T07:35:19.352Z,17.86
2022-07-27T07:36:19.400Z,17.97
2022-07-27T07:37:19.341Z,18.07
2022-07-27T07:38:19.312Z,18.04
2022-07-27T07:39:19.303Z,17.97
2022-07-27T07:40:41.870Z,17.97
2022-07-27T07:41:20.296Z,18.01
2022-07-27T07:42:19.263Z,18.03
2022-07-27T07:43:19.244Z,18.01
2022-07-27T07:44:19.236Z,18.08
2022-07-27T07:45:22.213Z,18.04
2022-07-27T07:46:22.308Z,18.15
2022-07-27T07:47:19.208Z,18.29
2022-07-27T07:48:19.175Z,18.53
2022-07-27T07:49:21.475Z,18.62
2022-07-27T07:50:20.158Z,18.78
2022-07-27T07:51:19.136Z,18.74
2022-07-27T07:52:19.137Z,18.73
2022-07-27T07:53:19.107Z,18.62
2022-07-27T07:54:19.087Z,18.44
2022-07-27T07:55:19.078Z,18.33
2022-07-27T07:56:19.100Z,18.19
2022-07-27T07:57:19.098Z,18.13
2022-07-27T07:58:19.032Z,18.07
2022-07-27T07:59:19.029Z,18.01
2022-07-27T08:00:19.002Z,17.94
2022-07-27T08:01:19.076Z,17.64
2022-07-27T08:02:19.074Z,17.56
2022-07-27T08:03:19.184Z,17.44
2022-07-27T08:04:18.953Z,17.26
2022-07-27T08:05:21.952Z,17.11
2022-07-27T08:06:21.984Z,17.08
2022-07-27T08:07:18.914Z,16.97
2022-07-27T08:08:19.057Z,16.96
2022-07-27T08:09:18.895Z,16.97
2022-07-27T08:10:18.875Z,16.97
2022-07-27T08:11:18.863Z,16.97
2022-07-27T08:12:18.849Z,16.99
2022-07-27T08:13:22.153Z,17.01
2022-07-27T08:14:18.847Z,16.96
2022-07-27T08:15:18.817Z,16.99
2022-07-27T08:16:18.899Z,17.04
2022-07-27T08:17:18.799Z,16.97
2022-07-27T08:18:18.799Z,17.02
2022-07-27T08:19:18.767Z,17.08
2022-07-27T08:20:18.749Z,17.09
2022-07-27T08:21:18.758Z,17.05
2022-07-27T08:22:18.727Z,17.04
2022-07-27T08:23:18.746Z,17.11
2022-07-27T08:24:18.770Z,17.12
2022-07-27T08:25:21.681Z,17.19
2022-07-27T08:26:21.716Z,17.26
2022-07-27T08:27:18.663Z,17.26
2022-07-27T08:28:18.640Z,17.29
2022-07-27T08:29:19.055Z,17.31
2022-07-27T08:30:18.627Z,17.31
2022-07-27T08:31:24.577Z,17.29
2022-07-27T08:32:19.650Z,17.26
2022-07-27T08:33:18.573Z,17.34
2022-07-27T08:34:18.569Z,17.46
2022-07-27T08:35:18.545Z,17.48
2022-07-27T08:36:18.537Z,17.54
2022-07-27T08:37:18.526Z,17.52
2022-07-27T08:38:18.563Z,17.52
2022-07-27T08:39:52.291Z,17.63
2022-07-27T08:41:19.467Z,17.70
2022-07-27T08:42:18.466Z,17.79
2022-07-27T08:43:24.450Z,17.87
2022-07-27T08:44:19.429Z,17.95
2022-07-27T08:45:21.419Z,17.98
2022-07-27T08:46:21.478Z,18.07
2022-07-27T08:47:18.451Z,18.08
2022-07-27T08:48:18.396Z,18.33
2022-07-27T08:49:18.885Z,18.68
2022-07-27T08:50:18.445Z,19.08
2022-07-27T08:51:18.341Z,19.34
2022-07-27T08:52:18.330Z,19.34
2022-07-27T08:53:18.365Z,19.19
2022-07-27T08:54:18.302Z,18.99
2022-07-27T08:55:18.294Z,18.95
2022-07-27T08:56:18.272Z,18.77
2022-07-27T08:57:18.260Z,18.77
2022-07-27T08:58:18.253Z,18.70
2022-07-27T08:59:18.270Z,18.80
2022-07-27T09:00:18.272Z,18.75
2022-07-27T09:01:18.317Z,18.83
2022-07-27T09:02:18.232Z,18.92
2022-07-27T09:03:20.612Z,18.88
2022-07-27T09:04:18.158Z,18.89
2022-07-27T09:05:21.148Z,18.95
2022-07-27T09:06:21.150Z,18.98
2022-07-27T09:07:18.116Z,18.99
2022-07-27T09:08:18.098Z,19.08
2022-07-27T09:09:18.134Z,19.21
2022-07-27T09:10:18.124Z,19.40
2022-07-27T09:11:18.059Z,19.59
2022-07-27T09:12:18.041Z,19.59
2022-07-27T09:13:18.034Z,19.71
2022-07-27T09:14:18.010Z,19.73
2022-07-27T09:15:18.054Z,19.71
2022-07-27T09:16:19.973Z,19.69
2022-07-27T09:18:18.989Z,19.73
2022-07-27T09:19:17.953Z,19.73
2022-07-27T09:20:18.868Z,19.76
2022-07-27T09:21:17.950Z,19.99
2022-07-27T09:22:17.917Z,20.24
2022-07-27T09:23:17.895Z,20.44
2022-07-27T09:24:44.304Z,20.52
2022-07-27T09:25:38.354Z,20.29
2022-07-27T09:26:37.275Z,20.10
2022-07-27T09:27:18.843Z,19.95
2022-07-27T09:28:17.830Z,19.85
2022-07-27T09:29:17.990Z,19.59
2022-07-27T09:30:17.801Z,19.29
2022-07-27T09:31:17.856Z,19.22
2022-07-27T09:32:17.904Z,18.96
2022-07-27T09:33:17.760Z,18.75
2022-07-27T09:34:17.799Z,18.63
2022-07-27T09:35:17.740Z,18.52
2022-07-27T09:36:17.720Z,18.63
2022-07-27T09:37:17.700Z,18.90
2022-07-27T09:38:17.687Z,19.22
2022-07-27T09:39:17.947Z,19.58
2022-07-27T09:40:22.613Z,19.76
2022-07-27T09:41:18.653Z,19.96
2022-07-27T09:43:02.793Z,19.92
2022-07-27T09:44:19.751Z,19.77
2022-07-27T09:44:34.749Z,19.56
2022-07-27T09:45:21.634Z,19.15
2022-07-27T09:46:20.622Z,18.74
2022-07-27T09:47:17.565Z,18.73
2022-07-27T09:48:17.555Z,18.74
2022-07-27T09:49:17.600Z,18.88
2022-07-27T09:50:17.679Z,19.18
2022-07-27T09:51:58.268Z,19.37
2022-07-27T09:52:18.517Z,19.55
2022-07-27T09:53:41.749Z,19.67
2022-07-27T09:54:18.469Z,19.74
2022-07-27T09:55:17.494Z,19.99
2022-07-27T09:56:17.447Z,19.92
2022-07-27T09:57:17.431Z,19.79
2022-07-27T09:58:17.419Z,19.95
2022-07-27T09:59:17.441Z,19.96
2022-07-27T10:00:17.581Z,19.89
2022-07-27T10:01:17.469Z,19.52
2022-07-27T10:02:17.467Z,19.34
2022-07-27T10:03:17.352Z,19.15
2022-07-27T10:04:17.694Z,19.02
2022-07-27T10:05:20.366Z,19.00
2022-07-27T10:06:20.324Z,18.78
2022-07-27T10:07:17.294Z,18.83
2022-07-27T10:08:17.285Z,18.93
2022-07-27T10:09:17.318Z,19.24
2022-07-27T10:10:17.277Z,19.30
2022-07-27T10:11:17.305Z,19.26
2022-07-27T10:12:17.236Z,19.29
2022-07-27T10:13:17.225Z,19.41
2022-07-27T10:14:17.205Z,19.52
2022-07-27T10:15:17.199Z,19.18
2022-07-27T10:16:17.291Z,18.99
2022-07-27T10:17:17.219Z,18.90
2022-07-27T10:18:17.166Z,18.92
2022-07-27T10:19:17.140Z,18.75
2022-07-27T10:20:17.120Z,18.65
2022-07-27T10:21:17.124Z,18.70
2022-07-27T10:22:17.100Z,18.86
2022-07-27T10:23:17.110Z,19.04
2022-07-27T10:24:17.069Z,19.12
2022-07-27T10:25:20.064Z,19.21
2022-07-27T10:26:20.052Z,19.21
2022-07-27T10:27:17.076Z,19.11
2022-07-27T10:28:17.019Z,18.96
2022-07-27T10:29:16.997Z,18.73
2022-07-27T10:30:16.985Z,18.71
2022-07-27T10:31:18.075Z,18.62
2022-07-27T10:32:16.966Z,18.59
2022-07-27T10:33:16.997Z,18.60
2022-07-27T10:34:16.940Z,18.78
2022-07-27T10:35:16.915Z,18.93
2022-07-27T10:36:17.221Z,19.30
2022-07-27T10:37:16.895Z,19.67
2022-07-27T10:38:16.878Z,19.94
2022-07-27T10:39:16.914Z,19.81
2022-07-27T10:40:16.859Z,19.85
2022-07-27T10:41:16.881Z,19.94
2022-07-27T10:42:16.821Z,20.13
2022-07-27T10:43:16.811Z,20.32
2022-07-27T10:44:17.818Z,20.25
2022-07-27T10:45:19.843Z,20.29
2022-07-27T10:46:19.823Z,20.39
2022-07-27T10:47:16.753Z,20.44
2022-07-27T10:48:16.745Z,20.26
2022-07-27T10:49:16.755Z,19.99
2022-07-27T10:50:16.723Z,19.88
2022-07-27T10:51:17.164Z,20.02
2022-07-27T10:52:16.705Z,19.95
2022-07-27T10:53:16.676Z,20.10
2022-07-27T10:54:16.665Z,20.16
2022-07-27T10:55:16.646Z,20.09
2022-07-27T10:56:16.648Z,20.04
2022-07-27T10:57:16.647Z,20.02
2022-07-27T10:58:16.623Z,19.91
2022-07-27T10:59:16.608Z,19.82
2022-07-27T11:00:19.909Z,19.85
2022-07-27T11:01:16.659Z,19.88
2022-07-27T11:02:16.588Z,20.13
2022-07-27T11:03:16.539Z,20.22
2022-07-27T11:04:17.048Z,20.14
2022-07-27T11:05:58.649Z,19.95
2022-07-27T11:07:04.671Z,19.64
2022-07-27T11:07:30.074Z,19.29
2022-07-27T11:08:36.520Z,19.11
2022-07-27T11:10:02.869Z,18.99
2022-07-27T11:10:17.452Z,18.86
2022-07-27T11:11:16.433Z,18.81
2022-07-27T11:12:16.422Z,18.83
2022-07-27T11:13:16.474Z,18.88
2022-07-27T11:14:18.970Z,18.88
2022-07-27T11:15:16.412Z,19.22
2022-07-27T11:16:23.844Z,19.66
2022-07-27T11:17:48.702Z,20.03
2022-07-27T11:18:17.438Z,20.07
2022-07-27T11:19:16.960Z,19.95
2022-07-27T11:20:16.323Z,19.69
2022-07-27T11:21:20.384Z,19.54
2022-07-27T11:22:28.708Z,19.47
2022-07-27T11:24:17.430Z,19.67
2022-07-27T11:25:19.301Z,19.79
2022-07-27T11:26:19.250Z,19.89
2022-07-27T11:27:18.395Z,20.03
2022-07-27T11:28:16.214Z,20.07
2022-07-27T11:29:16.454Z,20.11
2022-07-27T11:30:16.192Z,20.02
2022-07-27T11:31:32.470Z,19.99
2022-07-27T11:32:17.163Z,20.13
2022-07-27T11:33:16.143Z,20.24
2022-07-27T11:34:16.485Z,20.41
2022-07-27T11:35:19.744Z,20.36
2022-07-27T11:36:16.135Z,20.37
2022-07-27T11:37:16.093Z,20.26
2022-07-27T11:38:16.078Z,19.81
2022-07-27T11:39:19.684Z,19.45
2022-07-27T11:40:53.984Z,19.31
2022-07-27T11:41:28.310Z,19.11
2022-07-27T11:42:20.880Z,19.26
2022-07-27T11:43:16.016Z,19.41
2022-07-27T11:44:16.349Z,19.64
2022-07-27T11:45:18.979Z,19.79
2022-07-27T11:46:19.094Z,19.96
2022-07-27T11:47:15.949Z,19.82
2022-07-27T11:48:15.939Z,19.73
2022-07-27T11:49:15.953Z,19.69
2022-07-27T11:50:15.937Z,19.85
2022-07-27T11:51:15.901Z,19.92
2022-07-27T11:52:15.943Z,19.70
2022-07-27T11:53:15.883Z,19.56
2022-07-27T11:54:15.863Z,19.63
2022-07-27T11:55:15.843Z,19.67
2022-07-27T11:56:15.835Z,19.79
2022-07-27T11:57:15.835Z,19.73
2022-07-27T11:58:15.835Z,19.85
2022-07-27T11:59:16.087Z,19.88
2022-07-27T12:00:15.794Z,19.88
2022-07-27T12:01:15.777Z,19.91
2022-07-27T12:02:15.806Z,19.94
2022-07-27T12:03:15.765Z,19.91
2022-07-27T12:04:15.928Z,19.92
2022-07-27T12:05:18.747Z,19.86
2022-07-27T12:06:18.718Z,20.03
2022-07-27T12:07:15.912Z,20.09
2022-07-27T12:08:15.681Z,20.19
2022-07-27T12:09:16.308Z,20.32
2022-07-27T12:10:15.682Z,20.52
2022-07-27T12:11:15.630Z,20.63
2022-07-27T12:12:15.659Z,20.60
2022-07-27T12:13:15.614Z,20.63
2022-07-27T12:14:15.592Z,20.67
2022-07-27T12:15:44.330Z,20.80
2022-07-27T12:16:18.508Z,21.02
2022-07-27T12:17:15.580Z,21.14
2022-07-27T12:18:15.545Z,21.35
2022-07-27T12:19:16.030Z,21.61
2022-07-27T12:20:15.526Z,21.54
2022-07-27T12:21:15.530Z,21.33
2022-07-27T12:22:15.496Z,21.22
2022-07-27T12:23:15.476Z,21.00
2022-07-27T12:24:15.467Z,20.80
2022-07-27T12:25:18.466Z,20.84
2022-07-27T12:26:18.447Z,20.81
2022-07-27T12:27:15.478Z,20.82
2022-07-27T12:28:15.410Z,20.90
2022-07-27T12:29:15.875Z,20.93
2022-07-27T12:30:15.379Z,20.82
2022-07-27T12:31:15.414Z,21.02
2022-07-27T12:32:15.369Z,21.05
2022-07-27T12:33:15.381Z,20.77
2022-07-27T12:34:15.324Z,20.28
2022-07-27T12:35:15.315Z,20.34
2022-07-27T12:36:15.300Z,20.55
2022-07-27T12:37:15.282Z,20.78
2022-07-27T12:38:15.273Z,20.72
2022-07-27T12:39:15.726Z,20.77
2022-07-27T12:40:15.250Z,20.82
2022-07-27T12:41:15.254Z,21.12
2022-07-27T12:42:15.214Z,21.20
2022-07-27T12:43:15.199Z,21.25
2022-07-27T12:44:15.249Z,21.20
2022-07-27T12:45:18.175Z,20.97
2022-07-27T12:46:18.209Z,20.59
2022-07-27T12:47:15.149Z,20.21
2022-07-27T12:48:15.146Z,19.94
2022-07-27T12:49:15.832Z,20.13
2022-07-27T12:50:15.139Z,20.24
2022-07-27T12:51:15.110Z,20.18
2022-07-27T12:52:15.083Z,20.14
2022-07-27T12:53:15.089Z,20.40
2022-07-27T12:54:15.051Z,20.36
2022-07-27T12:55:15.820Z,20.11